createdAt,value
2022-12-18T00:00:17.817Z,49.17
2022-12-18T00:01:21.546Z,47.85
2022-12-18T00:02:24.346Z,44.15
2022-12-18T00:03:27.073Z,45.45
2022-12-18T00:04:35.617Z,50.25
2022-12-18T00:05:37.368Z,52.92
2022-12-18T00:06:44.065Z,52.95
2022-12-18T00:07:46.266Z,50.00
2022-12-18T00:08:49.808Z,43.13
2022-12-18T00:09:51.668Z,45.13
2022-12-18T00:10:54.327Z,41.47
2022-12-18T00:13:18.701Z,40.13
2022-12-18T00:14:20.387Z,46.25
2022-12-18T00:15:23.241Z,43.85
2022-12-18T00:16:31.059Z,42.75
2022-12-18T00:17:33.976Z,43.45
2022-12-18T00:18:36.332Z,37.20
2022-12-18T00:19:42.081Z,39.40
2022-12-18T00:20:43.764Z,40.97
2022-12-18T00:21:47.852Z,41.17
2022-12-18T00:22:49.845Z,38.47
2022-12-18T00:23:56.179Z,42.33
2022-12-18T00:24:58.251Z,44.88
2022-12-18T00:26:03.531Z,40.25
2022-12-18T00:27:05.301Z,39.53
2022-12-18T00:28:10.501Z,42.30
2022-12-18T00:29:14.997Z,40.10
2022-12-18T00:30:17.751Z,41.20
2022-12-18T00:31:21.723Z,41.42
2022-12-18T00:32:24.536Z,45.85
2022-12-18T00:33:26.445Z,47.22
2022-12-18T00:34:32.174Z,37.53
2022-12-18T00:35:36.975Z,44.55
2022-12-18T00:36:42.824Z,41.05
2022-12-18T00:37:57.967Z,42.65
2022-12-18T00:39:04.518Z,44.83
2022-12-18T00:40:07.510Z,43.78
2022-12-18T00:41:13.843Z,38.83
2022-12-18T00:42:34.379Z,36.45
2022-12-18T00:43:36.439Z,33.47
2022-12-18T00:44:38.493Z,36.28
2022-12-18T00:45:47.274Z,40.88
2022-12-18T00:46:52.240Z,41.20
2022-12-18T00:47:58.549Z,36.55
2022-12-18T00:49:06.253Z,42.95
2022-12-18T00:50:10.487Z,31.27
2022-12-18T00:51:14.512Z,33.83
2022-12-18T00:52:17.326Z,39.45
2022-12-18T00:53:20.668Z,41.55
2022-12-18T00:54:23.443Z,37.38
2022-12-18T00:55:25.216Z,34.60
2022-12-18T00:56:27.949Z,40.33
2022-12-18T00:57:32.083Z,32.85
2022-12-18T00:58:34.734Z,41.25
2022-12-18T00:59:39.062Z,34.90
2022-12-18T01:00:41.869Z,41.70
2022-12-18T01:01:43.775Z,38.67
2022-12-18T01:02:46.940Z,32.30
2022-12-18T01:03:48.748Z,39.58
2022-12-18T01:04:51.392Z,33.65
2022-12-18T01:05:54.104Z,41.35
2022-12-18T01:06:55.903Z,33.95
2022-12-18T01:08:01.130Z,38.25
2022-12-18T01:09:04.858Z,34.97
2022-12-18T01:10:09.432Z,38.33
2022-12-18T01:11:13.028Z,46.78
2022-12-18T01:12:15.857Z,44.50
2022-12-18T01:13:19.777Z,37.67
2022-12-18T01:14:22.850Z,39.45
2022-12-18T01:15:24.535Z,36.30
2022-12-18T01:16:27.453Z,35.00
2022-12-18T01:17:30.553Z,36.10
2022-12-18T01:18:35.648Z,36.40
2022-12-18T01:19:37.356Z,34.80
2022-12-18T01:20:40.463Z,38.85
2022-12-18T01:21:42.152Z,40.42
2022-12-18T01:22:47.171Z,34.28
2022-12-18T01:23:52.944Z,33.63
2022-12-18T01:24:58.784Z,36.70
2022-12-18T01:26:05.594Z,34.78
2022-12-18T01:27:10.373Z,38.88
2022-12-18T01:28:12.129Z,32.25
2022-12-18T01:29:14.779Z,34.35
2022-12-18T01:30:16.451Z,32.10
2022-12-18T01:31:21.464Z,36.05
2022-12-18T01:32:23.619Z,33.08
2022-12-18T01:33:26.257Z,38.60
2022-12-18T01:34:28.103Z,36.35
2022-12-18T01:35:30.776Z,35.08
2022-12-18T01:36:34.461Z,35.40
2022-12-18T01:37:37.139Z,33.50
2022-12-18T01:38:38.779Z,36.10
2022-12-18T01:39:44.387Z,33.10
2022-12-18T01:40:47.352Z,36.47
2022-12-18T01:42:05.238Z,33.17
2022-12-18T01:43:10.245Z,29.52
2022-12-18T01:44:46.668Z,34.22
2022-12-18T01:45:49.362Z,37.22
2022-12-18T01:46:50.940Z,39.75
2022-12-18T01:47:57.021Z,34.92
2022-12-18T01:49:01.579Z,36.30
2022-12-18T01:50:08.447Z,35.22
2022-12-18T01:51:14.410Z,33.78
2022-12-18T01:52:19.063Z,30.95
2022-12-18T01:53:24.810Z,29.98
2022-12-18T01:54:30.027Z,38.85
2022-12-18T01:55:38.149Z,29.33
2022-12-18T01:56:41.280Z,31.52
2022-12-18T01:57:44.257Z,33.75
2022-12-18T01:58:54.504Z,31.00
2022-12-18T02:00:03.979Z,19.75
2022-12-18T02:01:05.989Z,31.40
2022-12-18T02:02:09.861Z,32.00
2022-12-18T02:03:12.171Z,30.08
2022-12-18T02:04:23.190Z,26.70
2022-12-18T02:05:37.375Z,25.65
2022-12-18T02:06:43.878Z,31.02
2022-12-18T02:07:58.027Z,27.40
2022-12-18T02:09:11.997Z,27.83
2022-12-18T02:10:20.573Z,32.20
2022-12-18T02:11:37.292Z,29.15
2022-12-18T02:12:45.906Z,29.08
2022-12-18T02:13:55.547Z,28.15
2022-12-18T02:15:06.932Z,26.02
2022-12-18T02:16:17.320Z,31.85
2022-12-18T02:17:22.212Z,27.25
2022-12-18T02:18:30.252Z,30.55
2022-12-18T02:19:48.678Z,29.70
2022-12-18T02:20:57.463Z,29.35
2022-12-18T02:22:13.645Z,31.92
2022-12-18T02:23:27.638Z,24.90
2022-12-18T02:24:40.962Z,33.90
2022-12-18T02:26:06.940Z,28.90
2022-12-18T02:27:10.539Z,30.77
2022-12-18T02:28:17.803Z,29.70
2022-12-18T02:29:25.123Z,32.05
2022-12-18T02:30:31.028Z,30.20
2022-12-18T02:31:36.660Z,26.50
2022-12-18T02:32:43.494Z,27.15
2022-12-18T02:33:46.904Z,27.60
2022-12-18T02:34:51.134Z,27.17
2022-12-18T02:35:55.106Z,29.63
2022-12-18T02:37:00.168Z,28.08
2022-12-18T02:38:04.094Z,27.45
2022-12-18T02:39:10.107Z,28.23
2022-12-18T02:40:14.221Z,27.05
2022-12-18T02:41:19.353Z,24.48
2022-12-18T02:42:21.144Z,26.20
2022-12-18T02:43:26.259Z,25.17
2022-12-18T02:44:28.041Z,27.85
2022-12-18T02:45:30.705Z,29.10
2022-12-18T02:46:37.600Z,26.75
2022-12-18T02:47:44.268Z,25.70
2022-12-18T02:48:47.632Z,27.92
2022-12-18T02:49:59.433Z,29.25
2022-12-18T02:51:08.079Z,26.17
2022-12-18T02:52:20.195Z,29.65
2022-12-18T02:53:29.385Z,27.27
2022-12-18T02:54:45.458Z,26.35
2022-12-18T02:55:58.422Z,29.80
2022-12-18T02:57:11.704Z,26.55
2022-12-18T02:58:17.209Z,26.90
2022-12-18T02:59:25.071Z,28.30
2022-12-18T03:00:34.431Z,28.10
2022-12-18T03:01:45.271Z,27.85
2022-12-18T03:02:55.272Z,24.67
2022-12-18T03:04:01.684Z,21.95
2022-12-18T03:05:10.584Z,24.20
2022-12-18T03:06:23.503Z,27.83
2022-12-18T03:07:35.817Z,24.70
2022-12-18T03:08:41.279Z,29.70
2022-12-18T03:09:47.718Z,22.77
2022-12-18T03:10:55.994Z,26.58
2022-12-18T03:12:22.425Z,27.13
2022-12-18T03:13:34.057Z,31.08
2022-12-18T03:14:39.057Z,26.05
2022-12-18T03:15:45.948Z,24.23
2022-12-18T03:16:52.691Z,26.27
2022-12-18T03:18:01.265Z,27.90
2022-12-18T03:19:07.027Z,27.13
2022-12-18T03:20:14.153Z,24.65
2022-12-18T03:21:18.584Z,29.05
2022-12-18T03:22:22.969Z,29.73
2022-12-18T03:23:29.839Z,27.42
2022-12-18T03:24:35.315Z,25.50
2022-12-18T03:25:40.766Z,28.50
2022-12-18T03:26:54.514Z,27.23
2022-12-18T03:28:02.527Z,30.08
2022-12-18T03:29:09.560Z,36.70
2022-12-18T03:30:14.156Z,38.03
2022-12-18T03:31:18.148Z,33.75
2022-12-18T03:32:25.196Z,30.65
2022-12-18T03:33:31.757Z,39.35
2022-12-18T03:34:38.887Z,54.33
2022-12-18T03:35:44.656Z,32.92
2022-12-18T03:36:46.579Z,32.33
2022-12-18T03:37:49.216Z,24.50
2022-12-18T03:38:52.196Z,27.48
2022-12-18T03:39:54.192Z,23.17
2022-12-18T03:41:05.105Z,25.52
2022-12-18T03:42:12.730Z,25.25
2022-12-18T03:43:22.845Z,22.73
2022-12-18T03:44:33.616Z,15.23
2022-12-18T03:46:48.111Z,24.20
2022-12-18T03:48:01.237Z,21.77
2022-12-18T03:49:12.359Z,24.17
2022-12-18T03:50:20.157Z,22.02
2022-12-18T03:51:30.684Z,27.88
2022-12-18T03:52:39.100Z,22.45
2022-12-18T03:53:47.210Z,27.90
2022-12-18T03:54:50.189Z,23.73
2022-12-18T03:55:53.068Z,26.55
2022-12-18T03:57:02.800Z,21.25
2022-12-18T03:58:07.515Z,17.38
2022-12-18T03:59:13.488Z,24.60
2022-12-18T04:00:18.119Z,23.63
2022-12-18T04:01:26.012Z,22.83
2022-12-18T04:02:29.874Z,27.17
2022-12-18T04:03:36.381Z,21.35
2022-12-18T04:04:41.230Z,20.60
2022-12-18T04:05:45.561Z,25.50
2022-12-18T04:06:49.234Z,25.23
2022-12-18T04:07:53.243Z,28.77
2022-12-18T04:08:55.075Z,22.52
2022-12-18T04:10:03.430Z,25.23
2022-12-18T04:11:05.336Z,23.25
2022-12-18T04:12:10.252Z,22.75
2022-12-18T04:13:12.187Z,22.85
2022-12-18T04:14:18.241Z,21.65
2022-12-18T04:15:20.409Z,22.50
2022-12-18T04:16:23.004Z,22.20
2022-12-18T04:17:25.037Z,21.58
2022-12-18T04:18:30.611Z,25.83
2022-12-18T04:19:33.305Z,30.98
2022-12-18T04:20:34.911Z,26.80
2022-12-18T04:21:37.580Z,22.48
2022-12-18T04:22:39.220Z,27.10
2022-12-18T04:23:42.063Z,24.85
2022-12-18T04:24:43.936Z,25.35
2022-12-18T04:25:47.383Z,24.80
2022-12-18T04:26:48.978Z,22.23
2022-12-18T04:27:51.618Z,23.08
2022-12-18T04:28:53.331Z,21.52
2022-12-18T04:29:57.309Z,20.98
2022-12-18T04:30:59.009Z,20.83
2022-12-18T04:32:01.624Z,23.15
2022-12-18T04:33:03.617Z,24.10
2022-12-18T04:34:09.316Z,25.40
2022-12-18T04:35:12.145Z,23.42
2022-12-18T04:36:14.879Z,29.45
2022-12-18T04:37:16.585Z,24.85
2022-12-18T04:38:19.184Z,25.48
2022-12-18T04:39:20.771Z,26.50
2022-12-18T04:40:23.422Z,24.80
2022-12-18T04:41:24.994Z,24.63
2022-12-18T04:42:27.536Z,25.25
2022-12-18T04:43:29.195Z,24.50
2022-12-18T04:44:31.793Z,24.20
2022-12-18T04:45:34.864Z,25.02
2022-12-18T04:46:37.611Z,26.38
2022-12-18T04:47:39.277Z,21.70
2022-12-18T04:48:41.838Z,24.40
2022-12-18T04:49:43.455Z,27.00
2022-12-18T04:50:46.341Z,22.42
2022-12-18T04:51:49.713Z,25.20
2022-12-18T04:52:52.339Z,23.67
2022-12-18T04:53:54.902Z,25.00
2022-12-18T04:54:56.481Z,23.95
2022-12-18T04:56:06.915Z,30.10
2022-12-18T04:57:08.553Z,16.17
2022-12-18T04:58:19.819Z,20.20
2022-12-18T04:59:24.196Z,22.42
2022-12-18T05:00:27.031Z,22.83
2022-12-18T05:01:34.785Z,24.02
2022-12-18T05:02:37.988Z,23.80
2022-12-18T05:03:43.212Z,22.35
2022-12-18T05:04:46.476Z,21.17
2022-12-18T05:05:53.393Z,20.77
2022-12-18T05:06:56.076Z,22.33
2022-12-18T05:07:57.722Z,21.30
2022-12-18T05:09:01.932Z,22.20
2022-12-18T05:10:06.419Z,22.60
2022-12-18T05:11:10.717Z,22.35
2022-12-18T05:12:12.343Z,21.90
2022-12-18T05:13:15.128Z,21.33
2022-12-18T05:14:16.791Z,20.77
2022-12-18T05:15:19.458Z,24.80
2022-12-18T05:16:22.155Z,21.80
2022-12-18T05:17:25.333Z,23.08
2022-12-18T05:18:31.033Z,24.42
2022-12-18T05:19:32.713Z,19.90
2022-12-18T05:20:35.292Z,22.50
2022-12-18T05:21:39.220Z,18.00
2022-12-18T05:22:43.757Z,25.65
2022-12-18T05:23:45.498Z,20.40
2022-12-18T05:24:48.085Z,21.75
2022-12-18T05:25:52.502Z,20.58
2022-12-18T05:26:55.121Z,24.33
2022-12-18T05:27:56.725Z,23.83
2022-12-18T05:29:01.628Z,23.67
2022-12-18T05:30:04.142Z,19.40
2022-12-18T05:31:07.263Z,21.63
2022-12-18T05:32:09.128Z,21.92
2022-12-18T05:33:13.120Z,21.48
2022-12-18T05:34:15.024Z,20.27
2022-12-18T05:35:17.833Z,22.27
2022-12-18T05:36:19.548Z,20.55
2022-12-18T05:37:22.157Z,25.83
2022-12-18T05:38:25.394Z,17.80
2022-12-18T05:39:30.755Z,24.98
2022-12-18T05:40:32.393Z,21.38
2022-12-18T05:41:35.959Z,22.70
2022-12-18T05:42:37.973Z,16.55
2022-12-18T05:43:42.254Z,23.02
2022-12-18T05:44:44.961Z,23.65
2022-12-18T05:45:47.824Z,21.35
2022-12-18T05:46:52.376Z,24.00
2022-12-18T05:47:57.092Z,23.45
2022-12-18T05:49:02.190Z,22.73
2022-12-18T05:50:05.311Z,20.70
2022-12-18T05:51:11.701Z,18.38
2022-12-18T05:52:16.271Z,22.55
2022-12-18T05:53:21.357Z,25.40
2022-12-18T05:54:29.418Z,25.05
2022-12-18T05:55:34.046Z,20.77
2022-12-18T05:56:36.646Z,20.75
2022-12-18T05:57:40.475Z,23.40
2022-12-18T05:58:43.759Z,22.13
2022-12-18T05:59:45.431Z,22.40
2022-12-18T06:00:48.186Z,24.48
2022-12-18T06:01:50.262Z,21.00
2022-12-18T06:02:53.075Z,24.35
2022-12-18T06:03:55.880Z,22.13
2022-12-18T06:05:02.656Z,20.17
2022-12-18T06:06:04.673Z,22.48
2022-12-18T06:07:07.279Z,23.83
2022-12-18T06:08:09.853Z,21.80
2022-12-18T06:09:15.601Z,21.45
2022-12-18T06:10:19.232Z,22.80
2022-12-18T06:11:24.199Z,27.55
2022-12-18T06:12:26.207Z,26.67
2022-12-18T06:13:28.828Z,24.58
2022-12-18T06:14:30.622Z,27.77
2022-12-18T06:15:33.471Z,22.75
2022-12-18T06:16:35.223Z,25.20
2022-12-18T06:17:37.954Z,22.83
2022-12-18T06:18:39.663Z,23.77
2022-12-18T06:19:42.543Z,26.48
2022-12-18T06:20:45.854Z,26.25
2022-12-18T06:21:50.156Z,28.60
2022-12-18T06:22:51.828Z,30.70
2022-12-18T06:23:54.702Z,25.35
2022-12-18T06:24:56.385Z,26.42
2022-12-18T06:25:59.390Z,25.70
2022-12-18T06:27:01.025Z,27.05
2022-12-18T06:28:03.810Z,26.92
2022-12-18T06:29:07.126Z,27.08
2022-12-18T06:30:11.352Z,31.98
2022-12-18T06:31:13.317Z,26.35
2022-12-18T06:32:16.040Z,28.15
2022-12-18T06:33:18.144Z,31.35
2022-12-18T06:34:20.755Z,25.27
2022-12-18T06:35:22.520Z,22.52
2022-12-18T06:36:26.932Z,25.95
2022-12-18T06:37:29.192Z,30.25
2022-12-18T06:38:32.907Z,25.50
2022-12-18T06:39:34.576Z,33.70
2022-12-18T06:40:39.376Z,27.70
2022-12-18T06:41:40.972Z,27.40
2022-12-18T06:42:43.788Z,27.77
2022-12-18T06:43:45.771Z,24.42
2022-12-18T06:44:48.696Z,25.42
2022-12-18T06:45:53.609Z,28.88
2022-12-18T06:46:57.060Z,26.75
2022-12-18T06:47:58.820Z,25.65
2022-12-18T06:49:02.016Z,25.45
2022-12-18T06:50:08.635Z,28.17
2022-12-18T06:51:11.258Z,25.55
2022-12-18T06:52:16.906Z,22.40
2022-12-18T06:53:19.781Z,20.90
2022-12-18T06:54:21.793Z,17.65
2022-12-18T06:55:25.070Z,20.48
2022-12-18T06:56:27.704Z,22.65
2022-12-18T06:57:29.437Z,22.13
2022-12-18T06:58:32.208Z,23.90
2022-12-18T06:59:34.030Z,22.05
2022-12-18T07:00:37.206Z,21.90
2022-12-18T07:01:39.036Z,20.25
2022-12-18T07:02:41.883Z,21.65
2022-12-18T07:03:44.770Z,21.30
2022-12-18T07:04:47.733Z,21.77
2022-12-18T07:05:49.332Z,22.92
2022-12-18T07:06:51.873Z,21.27
2022-12-18T07:07:55.042Z,22.80
2022-12-18T07:09:00.114Z,21.10
2022-12-18T07:10:01.738Z,24.33
2022-12-18T07:11:06.293Z,23.13
2022-12-18T07:12:09.108Z,24.40
2022-12-18T07:13:10.792Z,24.65
2022-12-18T07:14:13.438Z,27.75
2022-12-18T07:15:20.726Z,28.42
2022-12-18T07:16:26.254Z,27.38
2022-12-18T07:17:29.332Z,33.70
2022-12-18T07:18:31.039Z,29.33
2022-12-18T07:19:36.816Z,31.23
2022-12-18T07:20:38.523Z,34.60
2022-12-18T07:21:43.851Z,32.92
2022-12-18T07:22:52.065Z,31.75
2022-12-18T07:24:02.797Z,32.70
2022-12-18T07:25:12.526Z,34.92
2022-12-18T07:26:18.079Z,24.80
2022-12-18T07:27:24.080Z,37.20
2022-12-18T07:28:28.710Z,35.80
2022-12-18T07:29:31.945Z,36.55
2022-12-18T07:30:33.837Z,40.90
2022-12-18T07:31:38.933Z,35.95
2022-12-18T07:32:40.897Z,41.35
2022-12-18T07:33:45.193Z,34.60
2022-12-18T07:34:46.853Z,31.50
2022-12-18T07:35:52.384Z,36.17
2022-12-18T07:36:54.962Z,29.00
2022-12-18T07:37:56.622Z,27.80
2022-12-18T07:39:02.222Z,30.08
2022-12-18T07:40:04.350Z,29.23
2022-12-18T07:41:10.122Z,27.50
2022-12-18T07:42:30.628Z,25.58
2022-12-18T07:43:33.264Z,23.73
2022-12-18T07:44:38.218Z,27.83
2022-12-18T07:45:40.891Z,27.10
2022-12-18T07:46:42.928Z,31.23
2022-12-18T07:47:45.568Z,27.98
2022-12-18T07:48:50.522Z,26.55
2022-12-18T07:49:53.265Z,28.52
2022-12-18T07:50:54.994Z,29.63
2022-12-18T07:51:58.477Z,32.13
2022-12-18T07:53:04.621Z,28.88
2022-12-18T07:54:08.509Z,35.30
2022-12-18T07:55:10.218Z,25.63
2022-12-18T07:56:31.464Z,26.40
2022-12-18T07:57:50.114Z,30.92
2022-12-18T07:58:54.114Z,25.60
2022-12-18T07:59:55.770Z,31.63
2022-12-18T08:01:08.715Z,33.92
2022-12-18T08:02:10.609Z,23.85
2022-12-18T08:03:15.062Z,25.45
2022-12-18T08:04:18.022Z,23.33
2022-12-18T08:05:19.689Z,27.08
2022-12-18T08:06:23.992Z,27.27
2022-12-18T08:07:27.183Z,24.60
2022-12-18T08:08:29.399Z,25.88
2022-12-18T08:09:33.386Z,26.20
2022-12-18T08:10:35.388Z,26.38
2022-12-18T08:11:40.601Z,27.05
2022-12-18T08:12:42.330Z,27.25
2022-12-18T08:13:44.885Z,26.33
2022-12-18T08:14:46.579Z,24.67
2022-12-18T08:16:00.593Z,26.75
2022-12-18T08:17:02.253Z,25.13
2022-12-18T08:18:05.972Z,23.90
2022-12-18T08:19:12.048Z,24.70
2022-12-18T08:20:15.884Z,23.20
2022-12-18T08:21:21.996Z,29.52
2022-12-18T08:22:23.742Z,29.50
2022-12-18T08:23:28.733Z,29.33
2022-12-18T08:24:33.648Z,29.17
2022-12-18T08:25:35.341Z,27.42
2022-12-18T08:27:06.658Z,24.92
2022-12-18T08:28:12.482Z,23.35
2022-12-18T08:29:17.322Z,30.50
2022-12-18T08:30:24.015Z,23.88
2022-12-18T08:31:27.544Z,31.42
2022-12-18T08:32:30.279Z,28.20
2022-12-18T08:33:32.086Z,27.67
2022-12-18T08:34:37.498Z,23.52
2022-12-18T08:35:45.485Z,25.25
2022-12-18T08:36:48.519Z,26.08
2022-12-18T08:37:51.005Z,27.52
2022-12-18T08:38:54.171Z,27.73
2022-12-18T08:39:58.301Z,28.33
2022-12-18T08:41:01.051Z,33.22
2022-12-18T08:42:24.262Z,29.50
2022-12-18T08:43:44.885Z,31.52
2022-12-18T08:44:53.550Z,24.65
2022-12-18T08:45:55.287Z,28.95
2022-12-18T08:46:58.131Z,35.83
2022-12-18T08:47:59.768Z,40.85
2022-12-18T08:49:02.460Z,47.60
2022-12-18T08:50:07.060Z,35.55
2022-12-18T08:51:10.492Z,31.63
2022-12-18T08:52:13.151Z,32.60
2022-12-18T08:53:15.248Z,27.60
2022-12-18T08:54:17.993Z,34.35
2022-12-18T08:55:24.102Z,32.10
2022-12-18T08:56:25.959Z,34.38
2022-12-18T08:57:28.675Z,29.45
2022-12-18T08:58:30.860Z,28.67
2022-12-18T08:59:36.181Z,29.85
2022-12-18T09:00:40.523Z,29.42
2022-12-18T09:01:43.198Z,25.85
2022-12-18T09:02:45.029Z,30.77
2022-12-18T09:03:47.663Z,29.42
2022-12-18T09:04:56.914Z,30.45
2022-12-18T09:06:00.444Z,25.70
2022-12-18T09:07:02.148Z,32.13
2022-12-18T09:08:04.931Z,31.52
2022-12-18T09:09:08.030Z,34.83
2022-12-18T09:10:10.025Z,35.58
2022-12-18T09:11:20.661Z,30.02
2022-12-18T09:12:23.263Z,22.50
2022-12-18T09:13:25.161Z,33.65
2022-12-18T09:14:27.707Z,32.70
2022-12-18T09:15:29.293Z,40.65
2022-12-18T09:16:33.539Z,32.55
2022-12-18T09:17:35.674Z,34.80
2022-12-18T09:18:38.709Z,34.05
2022-12-18T09:19:41.589Z,32.58
2022-12-18T09:20:43.375Z,33.97
2022-12-18T09:21:48.285Z,37.38
2022-12-18T09:22:50.221Z,31.88
2022-12-18T09:23:54.221Z,39.72
2022-12-18T09:24:58.431Z,40.42
2022-12-18T09:26:02.614Z,40.70
2022-12-18T09:27:07.699Z,34.28
2022-12-18T09:28:20.065Z,32.95
2022-12-18T09:29:23.123Z,31.70
2022-12-18T09:30:24.761Z,28.98
2022-12-18T09:31:29.819Z,35.80
2022-12-18T09:32:32.388Z,33.42
2022-12-18T09:33:37.905Z,35.65
2022-12-18T09:34:39.995Z,33.55
2022-12-18T09:35:44.733Z,29.05
2022-12-18T09:36:47.709Z,37.63
2022-12-18T09:37:49.726Z,35.65
2022-12-18T09:38:52.450Z,34.55
2022-12-18T09:39:55.474Z,35.45
2022-12-18T09:41:02.409Z,35.08
2022-12-18T09:42:07.548Z,35.50
2022-12-18T09:43:19.736Z,33.97
2022-12-18T09:44:27.115Z,38.35
2022-12-18T09:45:33.172Z,41.22
2022-12-18T09:46:42.574Z,34.08
2022-12-18T09:47:47.989Z,31.30
2022-12-18T09:48:53.490Z,34.58
2022-12-18T09:50:00.187Z,34.00
2022-12-18T09:51:10.424Z,35.47
2022-12-18T09:52:19.628Z,26.13
2022-12-18T09:53:29.385Z,27.52
2022-12-18T09:54:37.442Z,35.17
2022-12-18T09:55:43.850Z,34.95
2022-12-18T09:56:45.934Z,43.58
2022-12-18T09:57:54.330Z,33.45
2022-12-18T09:58:59.468Z,40.78
2022-12-18T10:00:19.318Z,46.13
2022-12-18T10:01:24.313Z,35.42
2022-12-18T10:02:32.095Z,36.22
2022-12-18T10:03:33.775Z,34.80
2022-12-18T10:04:36.319Z,42.80
2022-12-18T10:05:45.327Z,45.80
2022-12-18T10:06:56.428Z,49.25
2022-12-18T10:08:08.109Z,41.60
2022-12-18T10:09:21.364Z,44.97
2022-12-18T10:10:33.008Z,49.92
2022-12-18T10:11:45.584Z,40.65
2022-12-18T10:13:04.293Z,39.60
2022-12-18T10:14:16.697Z,37.35
2022-12-18T10:15:30.304Z,36.20
2022-12-18T10:16:41.834Z,35.72
2022-12-18T10:17:52.136Z,34.67
2022-12-18T10:19:12.145Z,28.17
2022-12-18T10:20:19.484Z,35.53
2022-12-18T10:21:28.949Z,34.33
2022-12-18T10:22:45.357Z,34.40
2022-12-18T10:23:57.550Z,35.88
2022-12-18T10:25:06.596Z,33.33
2022-12-18T10:26:23.293Z,35.08
2022-12-18T10:27:31.535Z,35.88
2022-12-18T10:28:38.480Z,31.40
2022-12-18T10:29:41.535Z,33.30
2022-12-18T10:30:45.611Z,31.33
2022-12-18T10:31:49.917Z,35.08
2022-12-18T10:32:53.237Z,34.63
2022-12-18T10:33:56.578Z,34.65
2022-12-18T10:35:01.120Z,32.47
2022-12-18T10:36:04.160Z,42.47
2022-12-18T10:37:15.713Z,39.85
2022-12-18T10:38:28.172Z,35.17
2022-12-18T10:39:29.766Z,38.88
2022-12-18T10:40:32.740Z,35.63
2022-12-18T10:41:35.663Z,39.42
2022-12-18T10:42:37.276Z,37.35
2022-12-18T10:43:42.424Z,34.85
2022-12-18T10:44:44.027Z,33.08
2022-12-18T10:46:04.148Z,37.05
2022-12-18T10:47:13.087Z,31.92
2022-12-18T10:48:22.327Z,34.45
2022-12-18T10:49:27.689Z,34.13
2022-12-18T10:51:08.657Z,34.00
2022-12-18T10:52:09.152Z,32.60
2022-12-18T10:53:21.216Z,38.28
2022-12-18T10:54:25.774Z,32.97
2022-12-18T10:55:33.522Z,35.80
2022-12-18T10:56:38.603Z,34.78
2022-12-18T10:57:42.585Z,35.10
2022-12-18T10:58:58.664Z,36.83
2022-12-18T11:00:22.773Z,34.55
2022-12-18T11:01:25.412Z,35.08
2022-12-18T11:02:34.283Z,34.95
2022-12-18T11:03:38.985Z,34.20
2022-12-18T11:04:53.470Z,32.80
2022-12-18T11:06:03.307Z,32.95
2022-12-18T11:07:07.789Z,35.80
2022-12-18T11:08:26.015Z,38.28
2022-12-18T11:09:29.828Z,39.28
2022-12-18T11:10:33.488Z,36.88
2022-12-18T11:11:36.698Z,35.88
2022-12-18T11:12:38.321Z,37.28
2022-12-18T11:13:41.554Z,35.50
2022-12-18T11:14:48.150Z,36.33
2022-12-18T11:15:51.712Z,35.80
2022-12-18T11:17:26.206Z,41.85
2022-12-18T11:18:21.817Z,38.03
2022-12-18T11:19:33.763Z,42.10
2022-12-18T11:20:36.955Z,39.97
2022-12-18T11:21:43.419Z,32.92
2022-12-18T11:22:57.357Z,35.15
2022-12-18T11:24:00.154Z,31.60
2022-12-18T11:26:37.180Z,37.35
2022-12-18T11:27:39.326Z,32.47
2022-12-18T11:28:45.588Z,36.13
2022-12-18T11:29:52.486Z,33.47
2022-12-18T11:31:13.781Z,36.53
2022-12-18T11:32:31.188Z,37.28
2022-12-18T11:33:33.992Z,34.83
2022-12-18T11:34:37.114Z,37.17
2022-12-18T11:35:45.249Z,34.53
2022-12-18T11:36:49.763Z,33.35
2022-12-18T11:37:58.566Z,34.65
2022-12-18T11:39:07.891Z,37.47
2022-12-18T11:40:15.555Z,47.35
2022-12-18T11:41:45.880Z,37.28
2022-12-18T11:43:59.084Z,30.98
2022-12-18T11:45:24.527Z,35.55
2022-12-18T11:46:36.667Z,26.77
2022-12-18T11:47:45.186Z,25.13
2022-12-18T11:48:54.198Z,26.73
2022-12-18T11:50:00.467Z,28.63
2022-12-18T11:51:07.554Z,28.70
2022-12-18T11:52:16.851Z,28.02
2022-12-18T11:53:20.328Z,26.90
2022-12-18T11:54:22.008Z,28.40
2022-12-18T11:55:33.104Z,29.77
2022-12-18T11:56:38.460Z,25.30
2022-12-18T11:57:47.345Z,28.13
2022-12-18T11:58:57.038Z,30.83
2022-12-18T12:00:11.069Z,25.35
2022-12-18T12:01:25.002Z,26.13
2022-12-18T12:02:43.857Z,32.95
2022-12-18T12:04:14.523Z,27.65
2022-12-18T12:05:37.466Z,21.13
2022-12-18T12:06:48.580Z,26.50
2022-12-18T12:07:56.301Z,25.92
2022-12-18T12:09:09.781Z,24.80
2022-12-18T12:10:27.964Z,25.35
2022-12-18T12:11:40.486Z,27.90
2022-12-18T12:12:58.104Z,30.95
2022-12-18T12:14:18.288Z,29.63
2022-12-18T12:15:36.836Z,30.45
2022-12-18T12:16:48.433Z,24.40
2022-12-18T12:18:00.091Z,31.48
2022-12-18T12:19:21.435Z,26.25
2022-12-18T12:20:36.262Z,27.38
2022-12-18T12:21:41.472Z,24.65
2022-12-18T12:22:54.849Z,24.67
2022-12-18T12:24:04.476Z,29.88
2022-12-18T12:25:20.058Z,25.50
2022-12-18T12:26:32.315Z,26.95
2022-12-18T12:27:46.309Z,25.40
2022-12-18T12:29:03.919Z,26.00
2022-12-18T12:30:10.402Z,27.42
2022-12-18T12:31:21.006Z,25.23
2022-12-18T12:32:36.864Z,27.05
2022-12-18T12:33:49.402Z,25.55
2022-12-18T12:35:09.609Z,28.75
2022-12-18T12:36:21.597Z,18.80
2022-12-18T12:37:36.035Z,25.55
2022-12-18T12:38:48.298Z,25.55
2022-12-18T12:39:56.471Z,25.58
2022-12-18T12:41:03.127Z,24.95
2022-12-18T12:42:32.136Z,24.95
2022-12-18T12:43:46.119Z,25.85
2022-12-18T12:44:56.245Z,24.00
2022-12-18T12:46:02.287Z,26.00
2022-12-18T12:47:16.965Z,26.25
2022-12-18T12:48:30.030Z,29.35
2022-12-18T12:49:40.394Z,24.17
2022-12-18T12:50:44.011Z,27.02
2022-12-18T12:51:49.205Z,23.88
2022-12-18T12:52:55.203Z,34.28
2022-12-18T12:54:00.095Z,28.45
2022-12-18T12:55:07.973Z,25.42
2022-12-18T12:56:16.282Z,26.23
2022-12-18T12:57:23.733Z,18.67
2022-12-18T12:58:35.615Z,18.83
2022-12-18T12:59:48.984Z,19.00
2022-12-18T13:00:59.972Z,20.23
2022-12-18T13:02:13.415Z,20.65
2022-12-18T13:03:32.011Z,18.05
2022-12-18T13:04:39.116Z,18.58
2022-12-18T13:05:46.665Z,21.98
2022-12-18T13:06:55.601Z,25.27
2022-12-18T13:08:02.787Z,21.10
2022-12-18T13:09:06.068Z,20.45
2022-12-18T13:10:17.554Z,20.27
2022-12-18T13:11:54.845Z,21.08
2022-12-18T13:13:03.334Z,24.92
2022-12-18T13:14:06.258Z,26.02
2022-12-18T13:15:23.432Z,27.70
2022-12-18T13:16:28.223Z,23.92
2022-12-18T13:17:32.196Z,24.27
2022-12-18T13:18:35.877Z,25.35
2022-12-18T13:19:37.522Z,23.70
2022-12-18T13:20:42.581Z,25.38
2022-12-18T13:21:55.389Z,28.98
2022-12-18T13:22:56.953Z,28.95
2022-12-18T13:24:17.781Z,28.77
2022-12-18T13:25:35.698Z,16.75
2022-12-18T13:26:38.554Z,22.50
2022-12-18T13:28:04.437Z,27.65
2022-12-18T13:29:07.421Z,32.08
2022-12-18T13:30:43.335Z,23.23
2022-12-18T13:32:22.810Z,24.25
2022-12-18T13:34:25.822Z,17.95
2022-12-18T13:35:43.646Z,25.40
2022-12-18T13:36:49.514Z,28.80
2022-12-18T13:37:53.530Z,25.83
2022-12-18T13:39:30.322Z,35.75
2022-12-18T13:40:59.056Z,35.38
2022-12-18T13:42:56.781Z,40.20
2022-12-18T13:44:14.024Z,32.90
2022-12-18T13:45:43.746Z,37.08
2022-12-18T13:46:50.641Z,26.30
2022-12-18T13:47:52.587Z,22.25
2022-12-18T13:49:02.052Z,25.38
2022-12-18T13:50:11.402Z,25.38
2022-12-18T13:51:19.394Z,22.40
2022-12-18T13:52:24.590Z,25.17
2022-12-18T13:53:30.927Z,27.25
2022-12-18T13:54:37.901Z,24.52
2022-12-18T13:55:39.521Z,25.80
2022-12-18T13:56:47.201Z,27.85
2022-12-18T13:57:48.771Z,26.67
2022-12-18T13:59:14.021Z,24.73
2022-12-18T14:00:25.868Z,26.27
2022-12-18T14:01:28.990Z,22.77
2022-12-18T14:02:32.509Z,24.00
2022-12-18T14:03:34.169Z,27.25
2022-12-18T14:04:38.974Z,38.83
2022-12-18T14:05:43.353Z,32.78
2022-12-18T14:06:48.325Z,29.83
2022-12-18T14:07:51.559Z,24.33
2022-12-18T14:08:54.937Z,27.70
2022-12-18T14:11:26.496Z,30.73
2022-12-18T14:12:50.329Z,27.02
2022-12-18T14:13:54.124Z,25.77
2022-12-18T14:14:56.818Z,28.27
2022-12-18T14:16:03.835Z,24.50
2022-12-18T14:17:10.776Z,23.42
2022-12-18T14:18:25.114Z,25.45
2022-12-18T14:19:27.863Z,26.00
2022-12-18T14:20:33.551Z,23.90
2022-12-18T14:21:36.304Z,28.08
2022-12-18T14:22:37.913Z,26.90
2022-12-18T14:23:42.970Z,25.95